首页
METAR-TAF:

METAR-TAF

机场 :

愛丁堡機場

爱丁堡, 苏格兰

纬度: 55-57N, 经度: 003-21W, 海拔: 41米

当前天气观测

该预报发布于42分钟前的14:20 UTC
风速15节,风向西,有时为27节阵风
温度 7°C
湿度 70%
气压 1010 hPa
能见度10公里或以上
少量云层高于2800英尺

METAR: EGPH 231420Z 27015G27KT 9999 FEW028 07/02 Q1010

时间: 15:02 (15:02 UTC)

预报

该预报发布于4小时和3分钟前的10:59 UTC
预报有效从23日的 12点(UTC)到 24日的 12点(UTC)
风速18节,风向西,有时为28节阵风
能见度10公里或以上
少量云层高于1500英尺
散云层高于3000英尺
几率 40% :
短暂存在
从 23日的 12点(UTC)到 23日的 16点(UTC)
风速25节,风向西,有时为38节阵风
能見度: 6000
阵雨
成为
从 23日的 16点(UTC)到 23日的 19点(UTC)
风速7节,风向西南
成为
从 24日的 03点(UTC)到 24日的 06点(UTC)
风速10节,风向
短暂存在
从 24日的 06点(UTC)到 24日的 12点(UTC)
能見度: 5000
多云层高于1000英尺
雨, 小雨, 雪
几率 40% :
短暂存在
从 24日的 08点(UTC)到 24日的 12点(UTC)
能見度: 3000
多云层高于600英尺
雨, 毛毛雨, 雨, 雪

TAF: EGPH 231059Z 2312/2412 26018G28KT 9999 FEW015 SCT030 PROB40 TEMPO 2312/2316 27025G38KT 6000 SHRA BECMG 2316/2319 23007KT BECMG 2403/2406 08010KT TEMPO 2406/2412 5000 RA -RASN BKN010 PROB40 TEMPO 2408/2412 3000 RADZ RASN BKN006

超过4000个机场的气象观测和天气预报(METAR&TAF报告)。

可查询的气象台以黄色和红色小点在地图上表示。

将鼠标移到小点上方,可查看气象台名称。

然后点击查看天气观测和预报。

如需切换地图:点击带黑十字的绿色按钮放大地图;点击带横线的绿色按钮缩小地图;或者点击绿色箭头查看邻近地区的地图。


METAR-TAF: